createdAt,value
2023-05-10T00:00:47.829Z,100694.88
2023-05-10T00:03:14.729Z,100699.16
2023-05-10T00:05:42.379Z,100695.72
2023-05-10T00:08:08.901Z,100698.31
2023-05-10T00:10:35.653Z,100691.47
2023-05-10T00:13:02.119Z,100694.03
2023-05-10T00:15:28.640Z,100686.31
2023-05-10T00:17:55.240Z,100689.75
2023-05-10T00:20:21.767Z,100686.34
2023-05-10T00:22:48.271Z,100688.00
2023-05-10T00:25:15.219Z,100677.75
2023-05-10T00:27:41.724Z,100682.00
2023-05-10T00:30:08.920Z,100676.91
2023-05-10T00:32:35.479Z,100674.34
2023-05-10T00:35:01.999Z,100666.66
2023-05-10T00:37:28.533Z,100658.97
2023-05-10T00:39:55.470Z,100660.69
2023-05-10T00:42:23.176Z,100656.41
2023-05-10T00:44:49.827Z,100652.13
2023-05-10T00:47:18.782Z,100646.16
2023-05-10T00:49:46.563Z,100654.69
2023-05-10T00:52:13.315Z,100645.28
2023-05-10T00:54:40.411Z,100641.88
2023-05-10T00:57:07.222Z,100637.59
2023-05-10T00:59:34.115Z,100645.28
2023-05-10T01:02:00.540Z,100637.59
2023-05-10T01:04:27.158Z,100637.56
2023-05-10T01:06:54.205Z,100641.84
2023-05-10T01:09:22.657Z,100637.59
2023-05-10T01:11:51.909Z,100629.03
2023-05-10T01:14:20.101Z,100623.06
2023-05-10T01:16:49.522Z,100626.47
2023-05-10T01:19:30.563Z,100625.59
2023-05-10T01:22:41.282Z,100623.03
2023-05-10T01:25:10.968Z,100616.19
2023-05-10T01:27:59.925Z,100616.22
2023-05-10T01:30:41.947Z,100617.06
2023-05-10T01:33:44.506Z,100610.22
2023-05-10T01:36:49.353Z,100609.38
2023-05-10T01:39:31.519Z,100612.78
2023-05-10T01:42:00.900Z,100607.66
2023-05-10T01:45:07.797Z,100606.78
2023-05-10T01:47:45.622Z,100602.53
2023-05-10T01:50:19.180Z,100605.06
2023-05-10T01:52:52.473Z,100605.09
2023-05-10T01:55:22.142Z,100602.53
2023-05-10T01:57:54.062Z,100602.53
2023-05-10T02:00:21.340Z,100598.25
2023-05-10T02:02:50.704Z,100594.81
2023-05-10T02:05:20.167Z,100605.03
2023-05-10T02:07:48.414Z,100591.41
2023-05-10T02:10:19.690Z,100597.34
2023-05-10T02:12:49.155Z,100596.50
2023-05-10T02:15:21.015Z,100592.22
2023-05-10T02:17:48.131Z,100594.75
2023-05-10T02:20:17.595Z,100593.03
2023-05-10T02:22:48.238Z,100599.84
2023-05-10T02:25:16.404Z,100591.28
2023-05-10T02:27:45.597Z,100591.28
2023-05-10T02:30:15.101Z,100588.72
2023-05-10T02:32:43.273Z,100593.84
2023-05-10T02:35:11.992Z,100587.00
2023-05-10T02:37:40.059Z,100590.41
2023-05-10T02:40:08.550Z,100586.19
2023-05-10T02:42:38.151Z,100579.38
2023-05-10T02:45:11.347Z,100587.00
2023-05-10T02:47:38.304Z,100588.72
2023-05-10T02:50:05.285Z,100588.69
2023-05-10T02:52:41.520Z,100588.66
2023-05-10T02:55:12.804Z,100586.13
2023-05-10T02:57:44.067Z,100593.78
2023-05-10T03:00:11.266Z,100582.69
2023-05-10T03:02:37.860Z,100577.56
2023-05-10T03:05:04.578Z,100575.03
2023-05-10T03:07:31.229Z,100577.56
2023-05-10T03:09:57.987Z,100581.81
2023-05-10T03:12:45.508Z,100582.66
2023-05-10T03:15:40.944Z,100587.75
2023-05-10T03:18:22.766Z,100577.53
2023-05-10T03:20:54.287Z,100574.94
2023-05-10T03:23:44.473Z,100574.06
2023-05-10T03:26:17.484Z,100574.91
2023-05-10T03:28:44.969Z,100568.09
2023-05-10T03:31:13.207Z,100569.78
2023-05-10T03:33:50.617Z,100575.75
2023-05-10T03:36:17.227Z,100568.06
2023-05-10T03:38:43.962Z,100570.59
2023-05-10T03:41:10.595Z,100563.78
2023-05-10T03:43:37.393Z,100568.00
2023-05-10T03:46:07.913Z,100567.13
2023-05-10T03:48:34.361Z,100560.31
2023-05-10T03:51:01.126Z,100563.75
2023-05-10T03:53:27.728Z,100556.13
2023-05-10T03:55:54.408Z,100563.78
2023-05-10T03:58:20.967Z,100559.50
2023-05-10T04:00:47.481Z,100563.75
2023-05-10T04:03:14.531Z,100561.22
2023-05-10T04:05:41.637Z,100560.34
2023-05-10T04:08:08.311Z,100564.59
2023-05-10T04:10:35.049Z,100561.22
2023-05-10T04:13:01.991Z,100559.53
2023-05-10T04:15:28.492Z,100558.69
2023-05-10T04:17:57.839Z,100558.72
2023-05-10T04:20:24.399Z,100561.31
2023-05-10T04:22:50.916Z,100556.19
2023-05-10T04:25:17.417Z,100557.09
2023-05-10T04:27:43.943Z,100563.06
2023-05-10T04:30:11.112Z,100561.41
2023-05-10T04:32:37.515Z,100563.13
2023-05-10T04:35:04.292Z,100552.03
2023-05-10T04:37:30.777Z,100562.31
2023-05-10T04:39:57.577Z,100561.47
2023-05-10T04:42:24.281Z,100559.78
2023-05-10T04:44:50.762Z,100563.25
2023-05-10T04:47:17.185Z,100558.16
2023-05-10T04:49:44.321Z,100559.91
2023-05-10T04:52:11.021Z,100552.25
2023-05-10T04:54:37.456Z,100560.75
2023-05-10T04:57:04.236Z,100565.06
2023-05-10T04:59:30.900Z,100548.88
2023-05-10T05:01:57.390Z,100551.41
2023-05-10T05:04:24.038Z,100546.31
2023-05-10T05:06:52.337Z,100555.72
2023-05-10T05:09:20.529Z,100557.44
2023-05-10T05:11:47.212Z,100548.03
2023-05-10T05:14:13.968Z,100554.00
2023-05-10T05:16:40.763Z,100547.19
2023-05-10T05:19:07.555Z,100542.94
2023-05-10T05:21:34.406Z,100544.59
2023-05-10T05:24:00.933Z,100541.16
2023-05-10T05:26:27.498Z,100537.69
2023-05-10T05:28:54.132Z,100548.81
2023-05-10T05:31:22.064Z,100541.06
2023-05-10T05:33:48.708Z,100550.44
2023-05-10T05:36:16.273Z,100542.72
2023-05-10T05:38:42.760Z,100541.81
2023-05-10T05:41:09.719Z,100540.94
2023-05-10T05:43:38.340Z,100545.97
2023-05-10T05:46:05.506Z,100539.06
2023-05-10T05:48:32.557Z,100535.56
2023-05-10T05:50:59.092Z,100535.50
2023-05-10T05:53:25.986Z,100535.47
2023-05-10T05:56:00.468Z,100537.94
2023-05-10T05:58:27.108Z,100526.75
2023-05-10T06:00:53.563Z,100527.50
2023-05-10T06:03:21.538Z,100523.09
2023-05-10T06:05:48.151Z,100533.25
2023-05-10T06:08:14.577Z,100535.69
2023-05-10T06:10:41.291Z,100532.97
2023-05-10T06:13:08.070Z,100536.28
2023-05-10T06:15:34.576Z,100532.72
2023-05-10T06:18:02.311Z,100535.16
2023-05-10T06:20:29.165Z,100534.22
2023-05-10T06:22:57.541Z,100531.53
2023-05-10T06:25:24.430Z,100529.59
2023-05-10T06:27:53.623Z,100531.94
2023-05-10T06:30:20.606Z,100533.50
2023-05-10T06:32:47.485Z,100526.50
2023-05-10T06:35:14.178Z,100534.91
2023-05-10T06:37:41.014Z,100530.53
2023-05-10T06:40:08.365Z,100531.22
2023-05-10T06:42:34.795Z,100534.41
2023-05-10T06:45:03.613Z,100533.59
2023-05-10T06:47:30.672Z,100529.19
2023-05-10T06:49:57.651Z,100523.84
2023-05-10T06:52:24.210Z,100528.88
2023-05-10T06:54:50.949Z,100528.78
2023-05-10T06:57:31.215Z,100525.19
2023-05-10T07:00:00.208Z,100515.63
2023-05-10T07:02:27.865Z,100531.69
2023-05-10T07:04:54.453Z,100524.13
2023-05-10T07:07:21.267Z,100523.03
2023-05-10T07:09:48.015Z,100518.50
2023-05-10T07:12:15.681Z,100522.59
2023-05-10T07:14:43.282Z,100520.06
2023-05-10T07:17:10.422Z,100519.69
2023-05-10T07:19:37.102Z,100516.97
2023-05-10T07:22:04.095Z,100522.72
2023-05-10T07:24:30.986Z,100518.06
2023-05-10T07:26:59.426Z,100512.66
2023-05-10T07:29:26.750Z,100507.47
2023-05-10T07:31:53.428Z,100519.22
2023-05-10T07:34:20.208Z,100519.75
2023-05-10T07:36:47.451Z,100516.00
2023-05-10T07:39:18.668Z,100515.78
2023-05-10T07:41:53.086Z,100521.16
2023-05-10T07:44:19.848Z,100518.69
2023-05-10T07:46:46.344Z,100515.50
2023-05-10T07:49:13.870Z,100522.97
2023-05-10T07:51:40.552Z,100522.50
2023-05-10T07:54:07.011Z,100511.13
2023-05-10T07:56:33.751Z,100510.88
2023-05-10T07:59:00.751Z,100517.34
2023-05-10T08:01:31.184Z,100513.34
2023-05-10T08:03:57.882Z,100508.31
2023-05-10T08:06:24.607Z,100508.38
2023-05-10T08:08:51.072Z,100516.69
2023-05-10T08:11:18.809Z,100515.63
2023-05-10T08:13:46.289Z,100525.03
2023-05-10T08:16:13.081Z,100512.63
2023-05-10T08:18:41.035Z,100519.53
2023-05-10T08:21:08.037Z,100512.22
2023-05-10T08:23:34.556Z,100515.59
2023-05-10T08:26:01.195Z,100514.50
2023-05-10T08:28:27.746Z,100514.44
2023-05-10T08:30:54.325Z,100504.78
2023-05-10T08:33:21.497Z,100511.16
2023-05-10T08:35:48.423Z,100508.09
2023-05-10T08:38:15.014Z,100504.44
2023-05-10T08:40:45.989Z,100500.63
2023-05-10T08:43:14.099Z,100498.47
2023-05-10T08:45:43.081Z,100504.06
2023-05-10T08:48:11.917Z,100499.13
2023-05-10T08:50:40.746Z,100498.53
2023-05-10T08:53:11.642Z,100500.00
2023-05-10T08:55:38.849Z,100497.00
2023-05-10T08:58:09.748Z,100503.50
2023-05-10T09:00:37.638Z,100509.06
2023-05-10T09:03:05.997Z,100502.13
2023-05-10T09:05:33.099Z,100498.03
2023-05-10T09:07:59.883Z,100500.47
2023-05-10T09:10:26.610Z,100495.56
2023-05-10T09:12:54.182Z,100504.03
2023-05-10T09:15:21.170Z,100501.34
2023-05-10T09:17:50.297Z,100504.75
2023-05-10T09:20:21.494Z,100497.66
2023-05-10T09:22:48.519Z,100507.94
2023-05-10T09:25:17.506Z,100506.84
2023-05-10T09:27:48.726Z,100508.53
2023-05-10T09:30:25.133Z,100507.22
2023-05-10T09:32:51.881Z,100503.75
2023-05-10T09:35:19.502Z,100514.56
2023-05-10T09:37:48.258Z,100511.38
2023-05-10T09:40:18.283Z,100512.22
2023-05-10T09:43:01.737Z,100516.28
2023-05-10T09:45:30.921Z,100516.44
2023-05-10T09:47:59.254Z,100505.19
2023-05-10T09:50:27.311Z,100507.72
2023-05-10T09:53:15.034Z,100500.06
2023-05-10T09:55:46.676Z,100508.69
2023-05-10T09:58:16.752Z,100504.16
2023-05-10T10:00:46.230Z,100507.94
2023-05-10T10:03:17.585Z,100507.16
2023-05-10T10:05:45.022Z,100499.34
2023-05-10T10:08:13.075Z,100509.38
2023-05-10T10:10:40.311Z,100505.84
2023-05-10T10:13:07.982Z,100505.28
2023-05-10T10:15:37.538Z,100507.25
2023-05-10T10:18:05.682Z,100499.25
2023-05-10T10:20:33.808Z,100504.84
2023-05-10T10:23:03.227Z,100497.16
2023-05-10T10:25:30.111Z,100497.66
2023-05-10T10:28:23.275Z,100509.63
2023-05-10T10:30:53.081Z,100491.41
2023-05-10T10:33:41.535Z,100495.56
2023-05-10T10:36:08.297Z,100492.41
2023-05-10T10:39:01.623Z,100499.34
2023-05-10T10:41:32.251Z,100490.31
2023-05-10T10:44:23.746Z,100484.63
2023-05-10T10:47:02.671Z,100485.75
2023-05-10T10:49:32.506Z,100499.00
2023-05-10T10:52:28.471Z,100485.75
2023-05-10T10:55:08.879Z,100495.78
2023-05-10T10:57:41.430Z,100499.38
2023-05-10T11:00:28.324Z,100499.34
2023-05-10T11:02:57.132Z,100493.66
2023-05-10T11:05:34.686Z,100497.84
2023-05-10T11:08:13.199Z,100490.88
2023-05-10T11:10:41.189Z,100491.56
2023-05-10T11:13:10.638Z,100502.59
2023-05-10T11:15:39.706Z,100494.38
2023-05-10T11:18:27.718Z,100498.69
2023-05-10T11:20:58.866Z,100489.53
2023-05-10T11:23:33.617Z,100492.03
2023-05-10T11:26:01.581Z,100485.88
2023-05-10T11:28:28.310Z,100486.06
2023-05-10T11:30:55.827Z,100484.38
2023-05-10T11:33:22.806Z,100477.13
2023-05-10T11:35:51.955Z,100480.56
2023-05-10T11:38:18.953Z,100476.25
2023-05-10T11:40:47.979Z,100488.09
2023-05-10T11:43:14.747Z,100481.44
2023-05-10T11:45:42.529Z,100479.41
2023-05-10T11:48:09.285Z,100470.91
2023-05-10T11:50:35.841Z,100476.63
2023-05-10T11:53:02.545Z,100474.72
2023-05-10T11:55:29.003Z,100487.47
2023-05-10T11:57:55.633Z,100485.47
2023-05-10T12:00:22.945Z,100483.38
2023-05-10T12:02:50.581Z,100478.69
2023-05-10T12:05:17.703Z,100491.19
2023-05-10T12:07:44.290Z,100486.06
2023-05-10T12:10:14.672Z,100494.47
2023-05-10T12:12:43.875Z,100482.56
2023-05-10T12:15:21.894Z,100497.94
2023-05-10T12:17:49.058Z,100497.44
2023-05-10T12:20:17.533Z,100498.44
2023-05-10T12:22:52.494Z,100494.75
2023-05-10T12:25:20.317Z,100480.38
2023-05-10T12:28:07.031Z,100485.81
2023-05-10T12:30:38.036Z,100483.09
2023-05-10T12:33:12.928Z,100487.56
2023-05-10T12:35:46.748Z,100489.53
2023-05-10T12:38:33.191Z,100482.69
2023-05-10T12:41:02.331Z,100487.28
2023-05-10T12:43:29.548Z,100488.88
2023-05-10T12:45:56.230Z,100487.78
2023-05-10T12:48:23.469Z,100494.47
2023-05-10T12:50:49.919Z,100491.44
2023-05-10T12:53:17.148Z,100491.75
2023-05-10T12:55:44.622Z,100490.50
2023-05-10T12:58:13.889Z,100493.81
2023-05-10T13:00:44.596Z,100492.25
2023-05-10T13:03:11.313Z,100490.84
2023-05-10T13:05:41.086Z,100494.00
2023-05-10T13:08:07.642Z,100485.81
2023-05-10T13:10:34.397Z,100480.97
2023-05-10T13:13:01.534Z,100483.34
2023-05-10T13:15:28.436Z,100475.72
2023-05-10T13:17:55.266Z,100479.91
2023-05-10T13:20:22.223Z,100476.81
2023-05-10T13:22:50.063Z,100485.06
2023-05-10T13:25:17.040Z,100475.06
2023-05-10T13:27:43.575Z,100481.19
2023-05-10T13:30:11.124Z,100482.97
2023-05-10T13:32:38.312Z,100476.16
2023-05-10T13:35:06.084Z,100475.66
2023-05-10T13:37:33.284Z,100475.41
2023-05-10T13:40:00.100Z,100474.25
2023-05-10T13:42:26.877Z,100455.19
2023-05-10T13:45:13.785Z,100453.53
2023-05-10T13:47:40.562Z,100464.44
2023-05-10T13:50:07.590Z,100465.72
2023-05-10T13:52:34.188Z,100463.50
2023-05-10T13:55:01.103Z,100460.53
2023-05-10T13:57:27.952Z,100463.50
2023-05-10T13:59:55.877Z,100470.66
2023-05-10T14:02:24.923Z,100467.91
2023-05-10T14:04:51.712Z,100460.47
2023-05-10T14:07:18.283Z,100463.91
2023-05-10T14:09:44.909Z,100472.06
2023-05-10T14:12:11.721Z,100466.53
2023-05-10T14:14:38.444Z,100472.41
2023-05-10T14:17:05.102Z,100466.59
2023-05-10T14:19:31.908Z,100467.56
2023-05-10T14:21:58.717Z,100455.44
2023-05-10T14:24:25.440Z,100464.88
2023-05-10T14:26:51.945Z,100460.41
2023-05-10T14:29:18.633Z,100460.53
2023-05-10T14:31:45.477Z,100461.88
2023-05-10T14:34:12.172Z,100461.81
2023-05-10T14:36:38.704Z,100460.28
2023-05-10T14:39:05.449Z,100457.09
2023-05-10T14:41:32.140Z,100462.09
2023-05-10T14:43:58.930Z,100455.38
2023-05-10T14:46:25.688Z,100441.91
2023-05-10T14:48:52.497Z,100455.09
2023-05-10T14:51:19.126Z,100446.06
2023-05-10T14:53:45.496Z,100464.44
2023-05-10T14:56:12.040Z,100455.56
2023-05-10T14:58:38.509Z,100463.81
2023-05-10T15:01:06.979Z,100453.38
2023-05-10T15:03:34.033Z,100463.56
2023-05-10T15:06:05.042Z,100457.59
2023-05-10T15:08:31.784Z,100464.31
2023-05-10T15:10:58.495Z,100466.84
2023-05-10T15:13:25.253Z,100472.38
2023-05-10T15:15:51.793Z,100467.81
2023-05-10T15:18:20.140Z,100466.13
2023-05-10T15:20:46.973Z,100462.28
2023-05-10T15:23:13.516Z,100475.31
2023-05-10T15:25:40.007Z,100472.31
2023-05-10T15:28:06.792Z,100467.47
2023-05-10T15:30:33.557Z,100469.72
2023-05-10T15:33:00.419Z,100470.72
2023-05-10T15:35:27.737Z,100462.47
2023-05-10T15:37:54.233Z,100460.59
2023-05-10T15:40:22.200Z,100462.22
2023-05-10T15:42:48.753Z,100458.59
2023-05-10T15:45:15.642Z,100455.94
2023-05-10T15:47:42.317Z,100461.91
2023-05-10T15:50:09.878Z,100466.09
2023-05-10T15:52:38.620Z,100461.53
2023-05-10T15:55:05.860Z,100457.34
2023-05-10T15:57:32.395Z,100469.91
2023-05-10T15:59:59.124Z,100468.06
2023-05-10T16:02:27.856Z,100465.59
2023-05-10T16:04:54.532Z,100470.31
2023-05-10T16:07:21.195Z,100468.28
2023-05-10T16:09:48.124Z,100473.38
2023-05-10T16:12:17.316Z,100481.63
2023-05-10T16:14:44.081Z,100472.34
2023-05-10T16:17:10.854Z,100481.44
2023-05-10T16:19:37.648Z,100474.19
2023-05-10T16:22:05.042Z,100475.53
2023-05-10T16:24:31.743Z,100474.25
2023-05-10T16:26:58.516Z,100480.13
2023-05-10T16:29:25.026Z,100478.81
2023-05-10T16:31:51.525Z,100487.91
2023-05-10T16:34:17.939Z,100480.97
2023-05-10T16:36:44.647Z,100488.59
2023-05-10T16:39:11.150Z,100490.13
2023-05-10T16:41:37.560Z,100484.16
2023-05-10T16:44:04.064Z,100492.59
2023-05-10T16:46:30.629Z,100484.75
2023-05-10T16:48:57.138Z,100487.69
2023-05-10T16:51:23.914Z,100489.00
2023-05-10T16:53:50.296Z,100497.75
2023-05-10T16:56:17.016Z,100500.00
2023-05-10T16:58:43.569Z,100495.72
2023-05-10T17:01:10.302Z,100490.84
2023-05-10T17:03:36.913Z,100501.28
2023-05-10T17:06:05.791Z,100509.00
2023-05-10T17:08:32.360Z,100518.00
2023-05-10T17:11:01.438Z,100523.72
2023-05-10T17:13:28.222Z,100530.25
2023-05-10T17:15:55.063Z,100524.34
2023-05-10T17:18:22.079Z,100525.22
2023-05-10T17:20:48.645Z,100534.41
2023-05-10T17:23:15.434Z,100538.06
2023-05-10T17:25:42.135Z,100543.69
2023-05-10T17:28:08.688Z,100541.91
2023-05-10T17:30:37.440Z,100544.72
2023-05-10T17:33:04.155Z,100557.28
2023-05-10T17:35:30.879Z,100553.28
2023-05-10T17:37:57.469Z,100557.75
2023-05-10T17:40:24.032Z,100561.72
2023-05-10T17:42:50.766Z,100562.22
2023-05-10T17:45:18.839Z,100565.78
2023-05-10T17:47:46.318Z,100568.75
2023-05-10T17:50:13.895Z,100573.31
2023-05-10T17:52:40.636Z,100574.25
2023-05-10T17:55:07.470Z,100578.19
2023-05-10T17:57:34.299Z,100577.66
2023-05-10T18:00:00.971Z,100583.13
2023-05-10T18:02:27.388Z,100591.25
2023-05-10T18:04:54.330Z,100594.91
2023-05-10T18:07:24.026Z,100593.56
2023-05-10T18:09:50.594Z,100586.88
2023-05-10T18:12:17.224Z,100599.31
2023-05-10T18:14:43.733Z,100596.88
2023-05-10T18:17:10.542Z,100598.91
2023-05-10T18:19:37.543Z,100598.19
2023-05-10T18:22:04.558Z,100597.59
2023-05-10T18:27:20.270Z,100608.69
2023-05-10T18:29:46.919Z,100609.75
2023-05-10T18:32:13.816Z,100611.72
2023-05-10T18:34:40.307Z,100619.13
2023-05-10T18:37:08.004Z,100616.00
2023-05-10T18:39:36.137Z,100625.75
2023-05-10T18:42:04.317Z,100632.75
2023-05-10T18:44:31.403Z,100635.66
2023-05-10T18:46:58.158Z,100638.63
2023-05-10T18:49:24.947Z,100645.69
2023-05-10T18:51:52.869Z,100651.25
2023-05-10T18:54:19.639Z,100653.44
2023-05-10T18:56:46.894Z,100656.41
2023-05-10T18:59:13.854Z,100665.06
2023-05-10T19:01:41.511Z,100668.78
2023-05-10T19:04:08.162Z,100662.19
2023-05-10T19:06:36.151Z,100677.94
2023-05-10T19:09:02.820Z,100675.44
2023-05-10T19:11:29.280Z,100676.50
2023-05-10T19:13:55.790Z,100677.66
2023-05-10T19:16:24.243Z,100683.13
2023-05-10T19:18:52.531Z,100679.00
2023-05-10T19:21:19.346Z,100685.03
2023-05-10T19:23:46.047Z,100686.94
2023-05-10T19:26:12.608Z,100684.38
2023-05-10T19:28:39.702Z,100684.59
2023-05-10T19:31:09.337Z,100688.19
2023-05-10T19:33:36.108Z,100685.03
2023-05-10T19:36:02.927Z,100689.38
2023-05-10T19:38:29.797Z,100686.94
2023-05-10T19:40:59.549Z,100693.91
2023-05-10T19:43:27.577Z,100688.91
2023-05-10T19:45:55.850Z,100687.28
2023-05-10T19:48:22.434Z,100688.31
2023-05-10T19:50:49.184Z,100690.16
2023-05-10T19:53:15.641Z,100696.34
2023-05-10T19:55:42.676Z,100698.97
2023-05-10T19:58:09.190Z,100706.72
2023-05-10T20:00:36.279Z,100699.00
2023-05-10T20:03:04.062Z,100711.13
2023-05-10T20:05:30.935Z,100704.28
2023-05-10T20:07:57.534Z,100705.97
2023-05-10T20:10:26.375Z,100700.84
2023-05-10T20:12:54.169Z,100713.88
2023-05-10T20:15:22.019Z,100713.19
2023-05-10T20:17:52.485Z,100712.38
2023-05-10T20:20:20.443Z,100717.66
2023-05-10T20:22:49.647Z,100716.13
2023-05-10T20:25:17.839Z,100708.50
2023-05-10T20:27:44.621Z,100716.34
2023-05-10T20:30:12.989Z,100713.75
2023-05-10T20:32:39.876Z,100716.41
2023-05-10T20:35:06.802Z,100719.84
2023-05-10T20:37:33.374Z,100719.09
2023-05-10T20:40:00.078Z,100722.56
2023-05-10T20:42:28.702Z,100719.22
2023-05-10T20:44:55.899Z,100716.75
2023-05-10T20:47:22.403Z,100724.59
2023-05-10T20:49:49.604Z,100722.06
2023-05-10T20:52:16.846Z,100724.75
2023-05-10T20:54:43.855Z,100722.34
2023-05-10T20:57:10.292Z,100723.28
2023-05-10T20:59:36.991Z,100721.75
2023-05-10T21:02:03.586Z,100720.22
2023-05-10T21:04:30.337Z,100721.22
2023-05-10T21:06:56.703Z,100719.56
2023-05-10T21:09:23.249Z,100723.09
2023-05-10T21:11:50.234Z,100729.28
2023-05-10T21:14:16.843Z,100724.34
2023-05-10T21:16:46.623Z,100728.72
2023-05-10T21:19:13.115Z,100724.50
2023-05-10T21:21:39.814Z,100728.13
2023-05-10T21:24:06.938Z,100731.75
2023-05-10T21:26:34.709Z,100727.56
2023-05-10T21:29:01.457Z,100731.13
2023-05-10T21:31:28.273Z,100738.09
2023-05-10T21:33:55.059Z,100739.09
2023-05-10T21:36:21.542Z,100733.22
2023-05-10T21:38:48.430Z,100738.53
2023-05-10T21:41:14.822Z,100742.78
2023-05-10T21:43:41.465Z,100739.38
2023-05-10T21:46:08.811Z,100744.66
2023-05-10T21:48:36.676Z,100741.41
2023-05-10T21:51:03.522Z,100745.78
2023-05-10T21:53:29.989Z,100751.00
2023-05-10T21:55:56.639Z,100754.56
2023-05-10T21:58:24.490Z,100759.78
2023-05-10T22:00:51.316Z,100759.88
2023-05-10T22:03:18.268Z,100757.31
2023-05-10T22:05:45.162Z,100759.13
2023-05-10T22:08:11.623Z,100761.66
2023-05-10T22:10:38.310Z,100759.13
2023-05-10T22:13:05.179Z,100757.47
2023-05-10T22:15:32.591Z,100757.47
2023-05-10T22:18:00.208Z,100761.84
2023-05-10T22:20:26.951Z,100757.53
2023-05-10T22:22:55.226Z,100756.78
2023-05-10T22:25:21.868Z,100754.22
2023-05-10T22:27:48.608Z,100756.81
2023-05-10T22:30:15.752Z,100759.41
2023-05-10T22:32:42.640Z,100759.50
2023-05-10T22:35:09.372Z,100763.91
2023-05-10T22:37:36.034Z,100757.97
2023-05-10T22:40:02.729Z,100770.03
2023-05-10T22:42:30.043Z,100758.84
2023-05-10T22:44:56.519Z,100774.28
2023-05-10T22:47:23.267Z,100764.88
2023-05-10T22:49:50.193Z,100770.91
2023-05-10T22:52:16.552Z,100764.06
2023-05-10T22:54:43.064Z,100762.38
2023-05-10T22:57:09.907Z,100766.72
2023-05-10T22:59:36.509Z,100766.75
2023-05-10T23:02:04.197Z,100765.13
2023-05-10T23:04:30.954Z,100765.19
2023-05-10T23:07:00.530Z,100769.50
2023-05-10T23:09:27.084Z,100771.28
2023-05-10T23:11:53.891Z,100767.06
2023-05-10T23:14:20.425Z,100768.78
2023-05-10T23:16:47.214Z,100767.97
2023-05-10T23:19:13.714Z,100774.00
2023-05-10T23:21:40.409Z,100768.00
2023-05-10T23:24:07.451Z,100770.56
2023-05-10T23:26:34.336Z,100764.63
2023-05-10T23:29:01.205Z,100771.50
2023-05-10T23:31:27.818Z,100768.97
2023-05-10T23:33:54.691Z,100773.31
2023-05-10T23:36:21.270Z,100771.59
2023-05-10T23:38:47.728Z,100774.16
2023-05-10T23:41:14.280Z,100775.06
2023-05-10T23:43:40.712Z,100774.22
2023-05-10T23:46:07.444Z,100775.13
2023-05-10T23:48:34.047Z,100771.69
2023-05-10T23:51:00.589Z,100775.13
2023-05-10T23:53:27.351Z,100776.84
2023-05-10T23:55:53.885Z,100764.84
2023-05-10T23:58:20.370Z,100764.84
